Clarinda, IA

6:15 PM CST on March 06, 2015 (GMT -0600)
East of Clarinda 1 mile | Change Station
CLOSE
Current Station
Personal Weather Station
Location: Clarinda, IA
Elevation: 1102 ft
Nearby Weather Stations

Elev 1102 ft 40.73 °N, 95.00 °W | Updated 2 minutes ago

Clear
Clear
55.7 °F
Feels Like 55.7 °F
N
1.0
Wind Variable Wind from NNW
Gusts 5.0 mph

Today
High -- | Low -- °F
--% Chance of Precip.
Yesterday
High -- | Low -- °F
Precip. -- in
6:46 AM 6:16 PM
Full, 99% visible
Pressure 30.15 in
Visibility 10.0 miles
Clouds Clear
Dew Point 23 °F
Humidity 28%
Rainfall in
Snow Depth Not available.
UV 0 out of 12
Pollen 3.60 out of 12
Air Quality Not available.
Flu Activity Not available.
METAR KICL 062355Z AUTO 24005KT 10SM CLR 13/M07 A3015 RMK AO2

More Conditions Fewer Conditions

Pressure 30.15 in
Visibility 10.0 miles
Clouds Clear
Dew Point 23 °F
Humidity 28%
Rainfall in
Snow Depth Not available.
UV 0 out of 12
Pollen 3.60 out of 12
Air Quality Not available.
Flu Activity Not available.
METAR KICL 062355Z AUTO 24005KT 10SM CLR 13/M07 A3015 RMK AO2

More Conditions Fewer Conditions

10-Day Weather Forecast

Almanac

Astronomy

Mar. 06, 2015 Rise Set
Actual Time
Civil Twilight
Nautical Twilight
Astronomical Twilight
Moon
Length of Visible Light
Length of Day
Tomorrow will be .
, % of the Moon is Illuminated

Today's Extremes

State Highs State Lows

Community

WunderPhotos

Upload Photos

1,803,466 photos uploaded!

WunderBlogs® & News

Nearby

Air Quality

  Air Quality AQ Index Pollutant
Not available.

Snow Depth

Station Depth Elevation

Earthquake Activity

City Distance Mag. Time & Date
Minimum magnitude displayed is 2.5.

Coastal Water Temperatures

Place Temperature

Nearby Weather Stations